Monday, August 20, 2018, 7:44 AM CDT
Back to Local

KARR, Chicago Aurora Municipal

Location: Sugar Grove, IL, United States Lat: 41.767
Local Time: 7:44 AM CDT (12:44 GMT) Lon: -88.467
Time Zone: US/Central Elev: 711 ft

Show me the last for .
Show Coded

Time T Td Feel RH Dir Speed Gust Alt SLP Vis Weather Sky Remarks
2018-08-20 06:52 71 65 76 81 120° 9 - 29.90 29.88 7 CLR 6-hr Min Temp (7am): 70.0°F
6-hr Max Temp (7am): 73.9°F
2018-08-20 05:52 70 65 - 84 90° 10 - 29.89 29.88 9 CLR None
2018-08-20 04:52 70 65 - 84 100° 9 - 29.91 29.89 8 CLR None
2018-08-20 03:52 71 66 76 84 110° 8 - 29.91 29.89 9 CLR None
2018-08-20 02:52 71 66 76 84 110° 7 - 29.92 29.91 8 CLR None
2018-08-20 01:52 73 67 77 81 120° 8 - 29.93 29.91 8 CLR None
2018-08-20 00:52 74 68 78 81 110° 8 - 29.95 29.93 8 CLR 6-hr Min Temp (1am): 71.1°F
6-hr Max Temp (1am): 81.0°F
24-hr Min Temp (1am): 61.0°F
24-hr Max Temp (1am): 87.1°F
2018-08-19 23:52 74 70 78 87 100° 10 - 29.95 29.93 8 CLR None
2018-08-19 22:52 71 69 76 93 60° 5 - 29.96 29.94 7 CLR None
2018-08-19 21:52 72 69 76 90 - Calm - 29.96 29.94 7 SCT055 None
2018-08-19 20:52 76 69 79 79 90° 9 - 29.94 29.93 8 CLR None
2018-08-19 19:52 77 68 80 73 - Calm - 29.93 29.92 8 CLR None
2018-08-19 18:52 81 67 84 62 190° 3 - 29.93 29.92 8 BKN060 BKN070 6-hr Min Temp (7pm): 81.0°F
6-hr Max Temp (7pm): 87.1°F
2018-08-19 17:52 83 65 85 54 170° 5 - 29.93 29.91 8 SCT055 BKN070 None
2018-08-19 16:52 85 64 87 49 160° 7 - 29.93 29.91 8 FEW050 None
2018-08-19 15:52 87 64 89 46 Variable 3 - 29.94 29.92 8 FEW049 None
2018-08-19 14:52 85 64 87 49 210° 5 - 29.97 29.95 7 CLR None
2018-08-19 13:52 85 63 87 47 Variable 3 - 29.98 29.97 8 FEW042 None
2018-08-19 12:52 83 65 85 54 Variable 5 - 30.00 29.98 7 CLR 6-hr Min Temp (1pm): 63.0°F
6-hr Max Temp (1pm): 84.9°F
2018-08-19 11:52 83 66 86 56 Variable 6 - 30.01 29.99 8 FEW034 None
2018-08-19 11:50 82 66 85 58 100° 3 - 30.01 - 8 FEW034 None
2018-08-19 10:52 81 65 83 58 110° 6 - 30.01 29.99 8 BKN026 None
2018-08-19 10:35 80 67 83 64 Variable 3 - 30.01 - 7 BKN024 None
2018-08-19 09:52 77 69 80 76 60° 3 - 30.01 30.00 7 CLR None
2018-08-19 08:52 72 69 76 90 200° 3 - 30.01 29.99 5 BR CLR None
2018-08-19 08:29 70 68 - 93 - Calm - 30.00 - 4 BR CLR None
2018-08-19 07:56 67 67 - 100 - Calm - 29.99 - 2 BR SCT003 None
2018-08-19 07:52 67 67 - 100 - Calm - 29.99 29.98 2 BR VV001 None

Support USWX by starting your Amazon purchase here.